Time;durP1;ratioP1;P1;durP2;ratioP2;P2;SDS_P1;SDS_P2;PMS_P1;PMS_P2;Temp;Humidity;BMP_temperature;BMP_pressure;BME280_temperature;BME280_humidity;BME280_pressure;Samples;Min_cycle;Max_cycle;Signal;HPM_P1;HPM_P2
2021/10/15 00:01:52;;;;;;;;;;;14.10;99.90;;;;;;4994722;28;20394;-78
2021/10/15 00:04:17;;;;;;;;;;;14.10;99.90;;;;;;5013416;28;19917;-77
2021/10/15 00:06:43;;;;;;;;;;;14.00;99.90;;;;;;5013351;28;19914;-75
2021/10/15 00:09:08;;;;;;;;;;;14.10;99.90;;;;;;4997334;28;20447;-75
2021/10/15 00:11:34;;;;;;;;;;;14.10;99.90;;;;;;4998664;28;19914;-77
2021/10/15 00:13:59;;;;;;;;;;;14.10;99.90;;;;;;5017241;28;19940;-76
2021/10/15 00:16:25;;;;;;;;;;;14.10;99.90;;;;;;4998814;28;19918;-77
2021/10/15 00:18:50;;;;;;;;;;;14.00;99.90;;;;;;5017639;28;19913;-77
2021/10/15 00:21:16;;;;;;;;;;;14.00;99.90;;;;;;4998337;28;19913;-78
2021/10/15 00:23:41;;;;;;;;;;;14.10;99.90;;;;;;4998997;28;20289;-77
2021/10/15 00:26:07;;;;;;;;;;;14.00;99.90;;;;;;4997556;28;20012;-77
2021/10/15 00:28:32;;;;;;;;;;;14.00;99.90;;;;;;5016486;28;20579;-77
2021/10/15 00:30:58;;;;;;;;;;;14.00;99.90;;;;;;5016097;28;19914;-76
2021/10/15 00:33:24;;;;;;;;;;;13.90;99.90;;;;;;5016118;28;19913;-77
2021/10/15 00:35:49;;;;;;;;;;;14.00;99.90;;;;;;5016160;28;20370;-77
2021/10/15 00:38:15;;;;;;;;;;;14.00;99.90;;;;;;5016537;28;19963;-77
2021/10/15 00:40:40;;;;;;;;;;;13.90;99.90;;;;;;5016613;28;19992;-76
2021/10/15 00:43:06;;;;;;;;;;;14.00;99.90;;;;;;5016408;28;20032;-76
2021/10/15 00:45:31;;;;;;;;;;;13.90;99.90;;;;;;4999058;28;20812;-75
2021/10/15 00:47:57;;;;;;;;;;;13.80;99.90;;;;;;5016476;28;19913;-76
2021/10/15 00:50:22;;;;;;;;;;;13.90;99.90;;;;;;5016105;28;19990;-76
2021/10/15 00:52:48;;;;;;;;;;;13.90;99.90;;;;;;4998380;28;20362;-77
2021/10/15 00:55:14;;;;;;;;;;;13.90;99.90;;;;;;4998980;28;19913;-76
2021/10/15 00:57:39;;;;;;;;;;;13.90;99.90;;;;;;5015770;28;19928;-76
2021/10/15 01:00:05;;;;;;;;;;;13.90;99.90;;;;;;5016231;28;19921;-77
2021/10/15 01:02:31;;;;;;;;;;;13.90;99.90;;;;;;5016196;28;19921;-77
2021/10/15 01:04:57;;;;;;;;;;;13.90;99.90;;;;;;4997500;28;19913;-77
2021/10/15 01:07:24;;;;;;;;;;;13.80;99.90;;;;;;5000703;28;22000;-75
2021/10/15 01:09:50;;;;;;;;;;;13.80;99.90;;;;;;5016069;28;19957;-75
2021/10/15 01:12:16;;;;;;;;;;;13.80;99.90;;;;;;5015480;28;19920;-77
2021/10/15 01:14:41;;;;;;;;;;;13.80;99.90;;;;;;4998486;28;19913;-77
2021/10/15 01:17:07;;;;;;;;;;;13.80;99.90;;;;;;4998427;28;19963;-76
2021/10/15 01:19:33;;;;;;;;;;;13.90;99.90;;;;;;5015803;28;19921;-77
2021/10/15 01:22:03;;;;;;;;;;;13.90;99.90;;;;;;4997687;28;20297;-77
2021/10/15 01:24:28;;;;;;;;;;;13.80;99.90;;;;;;5015675;28;19956;-78
2021/10/15 01:26:54;;;;;;;;;;;13.80;99.90;;;;;;5015673;28;19957;-77
2021/10/15 01:29:19;;;;;;;;;;;13.90;99.90;;;;;;4998177;28;19971;-78
2021/10/15 01:31:45;;;;;;;;;;;13.90;99.90;;;;;;4997177;28;19918;-79
2021/10/15 01:34:10;;;;;;;;;;;13.90;99.90;;;;;;5015562;28;19914;-76
2021/10/15 01:36:36;;;;;;;;;;;14.00;99.90;;;;;;4997098;28;19925;-79
2021/10/15 01:39:02;;;;;;;;;;;13.90;99.90;;;;;;5015736;28;20357;-77
2021/10/15 01:41:28;;;;;;;;;;;13.90;99.90;;;;;;5015477;28;20012;-77
2021/10/15 01:43:53;;;;;;;;;;;13.90;99.90;;;;;;4997706;28;19913;-77
2021/10/15 01:46:19;;;;;;;;;;;13.90;99.90;;;;;;5015221;28;19914;-78
2021/10/15 01:48:45;;;;;;;;;;;13.80;99.90;;;;;;5015526;28;19909;-78
2021/10/15 01:51:10;;;;;;;;;;;13.90;99.90;;;;;;4997078;28;19924;-77
2021/10/15 01:53:36;;;;;;;;;;;13.90;99.90;;;;;;5014885;28;19914;-77
2021/10/15 01:56:02;;;;;;;;;;;13.90;99.90;;;;;;5015096;28;20392;-77
2021/10/15 01:58:28;;;;;;;;;;;13.90;99.90;;;;;;5015084;28;19914;-77
2021/10/15 02:00:53;;;;;;;;;;;13.90;99.90;;;;;;5014413;28;19913;-76
2021/10/15 02:03:19;;;;;;;;;;;13.90;99.90;;;;;;4997334;28;20133;-77
2021/10/15 02:05:44;;;;;;;;;;;13.90;99.90;;;;;;4994156;28;19945;-75
2021/10/15 02:08:10;;;;;;;;;;;13.90;99.90;;;;;;4997227;28;19922;-78
2021/10/15 02:10:35;;;;;;;;;;;13.90;99.90;;;;;;4997246;28;19920;-77
2021/10/15 02:13:01;;;;;;;;;;;13.90;99.90;;;;;;5014666;28;19936;-77
2021/10/15 02:15:26;;;;;;;;;;;13.90;99.90;;;;;;4997161;28;20373;-77
2021/10/15 02:17:52;;;;;;;;;;;13.90;99.90;;;;;;5015029;28;19918;-77
2021/10/15 02:20:18;;;;;;;;;;;14.00;99.90;;;;;;5014668;28;20370;-77
2021/10/15 02:22:44;;;;;;;;;;;14.00;99.90;;;;;;4996711;28;19921;-77
2021/10/15 02:25:11;;;;;;;;;;;14.00;99.90;;;;;;4996624;28;19917;-77
2021/10/15 02:27:36;;;;;;;;;;;13.90;99.90;;;;;;5004473;28;19913;-77
2021/10/15 02:30:03;;;;;;;;;;;13.90;99.90;;;;;;5014631;28;19913;-77
2021/10/15 02:32:28;;;;;;;;;;;14.00;99.90;;;;;;5013576;28;19995;-77
2021/10/15 02:34:54;;;;;;;;;;;13.90;99.90;;;;;;4997144;28;19921;-77
2021/10/15 02:37:19;;;;;;;;;;;13.90;99.90;;;;;;4996446;28;20074;-76
2021/10/15 02:39:46;;;;;;;;;;;13.90;99.90;;;;;;4996500;28;19957;-76
2021/10/15 02:42:12;;;;;;;;;;;14.00;99.90;;;;;;4996515;28;19913;-77
2021/10/15 02:44:37;;;;;;;;;;;14.00;99.90;;;;;;4996723;28;20345;-77
2021/10/15 02:47:03;;;;;;;;;;;14.00;99.90;;;;;;5014279;28;19920;-77
2021/10/15 02:49:28;;;;;;;;;;;14.00;99.90;;;;;;4996593;28;19921;-77
2021/10/15 02:51:54;;;;;;;;;;;14.00;99.90;;;;;;4995628;28;20266;-77
2021/10/15 02:54:20;;;;;;;;;;;14.00;99.90;;;;;;5013957;28;20012;-77
2021/10/15 02:56:45;;;;;;;;;;;14.00;99.90;;;;;;4996343;28;19917;-77
2021/10/15 02:59:11;;;;;;;;;;;14.10;99.90;;;;;;5013827;28;19913;-77
2021/10/15 03:01:36;;;;;;;;;;;14.00;99.90;;;;;;5013444;28;20386;-77
2021/10/15 03:04:02;;;;;;;;;;;14.00;99.90;;;;;;5013748;28;19914;-77
2021/10/15 03:06:27;;;;;;;;;;;14.00;99.90;;;;;;5013213;28;19921;-77
2021/10/15 03:08:53;;;;;;;;;;;14.00;99.90;;;;;;4995509;28;20290;-77
2021/10/15 03:11:18;;;;;;;;;;;14.00;99.90;;;;;;4996286;28;19967;-78
2021/10/15 03:13:44;;;;;;;;;;;14.00;99.90;;;;;;5014125;28;19913;-78
2021/10/15 03:16:09;;;;;;;;;;;14.00;99.90;;;;;;4995998;28;19941;-75
2021/10/15 03:18:35;;;;;;;;;;;14.00;99.90;;;;;;5014053;28;19956;-78
2021/10/15 03:21:00;;;;;;;;;;;14.00;99.90;;;;;;4995782;28;19956;-77
2021/10/15 03:23:26;;;;;;;;;;;13.90;99.90;;;;;;5013595;28;19918;-77
2021/10/15 03:25:51;;;;;;;;;;;13.90;99.90;;;;;;5013559;28;19986;-78
2021/10/15 03:28:17;;;;;;;;;;;14.00;99.90;;;;;;4995868;28;20321;-78
2021/10/15 03:30:42;;;;;;;;;;;14.00;99.90;;;;;;5013346;28;19914;-76
2021/10/15 03:33:08;;;;;;;;;;;14.00;99.90;;;;;;4995946;28;19913;-77
2021/10/15 03:35:33;;;;;;;;;;;14.00;99.90;;;;;;4995975;28;19909;-77
2021/10/15 03:37:59;;;;;;;;;;;14.10;99.90;;;;;;5012173;28;19988;-77
2021/10/15 03:40:24;;;;;;;;;;;14.00;99.90;;;;;;5011646;28;20250;-77
2021/10/15 03:42:50;;;;;;;;;;;14.00;99.90;;;;;;5013196;28;20365;-77
2021/10/15 03:45:16;;;;;;;;;;;14.10;99.90;;;;;;4995766;28;20234;-77
2021/10/15 03:47:41;;;;;;;;;;;14.10;99.90;;;;;;5013750;28;19914;-77
2021/10/15 03:50:08;;;;;;;;;;;14.10;99.90;;;;;;4995316;28;19914;-77
2021/10/15 03:52:34;;;;;;;;;;;14.10;99.90;;;;;;5012379;28;19913;-77
2021/10/15 03:54:59;;;;;;;;;;;14.10;99.90;;;;;;5013942;28;20032;-77
2021/10/15 03:57:25;;;;;;;;;;;14.10;99.90;;;;;;5013188;28;19964;-76
2021/10/15 03:59:50;;;;;;;;;;;14.10;99.90;;;;;;5013145;28;19913;-77
2021/10/15 04:02:16;;;;;;;;;;;14.10;99.90;;;;;;4996155;28;19955;-77
2021/10/15 04:04:41;;;;;;;;;;;14.10;99.90;;;;;;5013124;28;19996;-76
2021/10/15 04:07:07;;;;;;;;;;;14.00;99.90;;;;;;4995328;28;19913;-77
2021/10/15 04:10:20;;;;;;;;;;;14.10;99.90;;;;;;5012775;28;19971;-76
2021/10/15 04:12:45;;;;;;;;;;;14.10;99.90;;;;;;4931576;29;20272;-77
2021/10/15 04:15:11;;;;;;;;;;;14.10;99.90;;;;;;4917620;29;19921;-77
2021/10/15 04:17:36;;;;;;;;;;;14.10;99.90;;;;;;4958640;28;20004;-77
2021/10/15 04:20:02;;;;;;;;;;;14.10;99.90;;;;;;4995469;28;20005;-76
2021/10/15 04:22:29;;;;;;;;;;;14.10;99.90;;;;;;5012634;28;19913;-77
2021/10/15 04:24:55;;;;;;;;;;;14.10;99.90;;;;;;4995149;28;19909;-78
2021/10/15 04:27:20;;;;;;;;;;;14.10;99.90;;;;;;5013204;28;19913;-76
2021/10/15 04:29:46;;;;;;;;;;;14.10;99.90;;;;;;5013224;28;19935;-76
2021/10/15 04:32:31;;;;;;;;;;;14.10;99.90;;;;;;5013258;28;19920;-77
2021/10/15 04:34:57;;;;;;;;;;;14.10;99.90;;;;;;4995578;28;19909;-76
2021/10/15 04:37:22;;;;;;;;;;;14.20;99.90;;;;;;4995332;28;19974;-77
2021/10/15 04:39:48;;;;;;;;;;;14.10;99.90;;;;;;4995160;28;20324;-77
2021/10/15 04:42:13;;;;;;;;;;;14.10;99.90;;;;;;5013432;28;19909;-78
2021/10/15 04:44:39;;;;;;;;;;;14.10;99.90;;;;;;4995510;28;20004;-76
2021/10/15 04:47:04;;;;;;;;;;;14.10;99.90;;;;;;5012709;28;20044;-75
2021/10/15 04:49:30;;;;;;;;;;;14.10;99.90;;;;;;4994914;28;19920;-77
2021/10/15 04:51:55;;;;;;;;;;;14.10;99.90;;;;;;4994944;28;19914;-77
2021/10/15 04:54:21;;;;;;;;;;;14.10;99.90;;;;;;5012972;28;20286;-76
2021/10/15 04:56:46;;;;;;;;;;;14.10;99.90;;;;;;5016027;28;19917;-76
2021/10/15 04:59:12;;;;;;;;;;;14.00;99.90;;;;;;4998370;28;19909;-77
2021/10/15 05:01:37;;;;;;;;;;;14.00;99.90;;;;;;5016389;28;20000;-77
2021/10/15 05:04:03;;;;;;;;;;;14.00;99.90;;;;;;4998306;28;19956;-77
2021/10/15 05:06:28;;;;;;;;;;;14.00;99.90;;;;;;5015772;28;19921;-77
2021/10/15 05:11:26;;;;;;;;;;;14.00;99.90;;;;;;5016504;28;20027;-77
2021/10/15 05:13:51;;;;;;;;;;;14.10;99.90;;;;;;4998547;28;20473;-76
2021/10/15 05:16:17;;;;;;;;;;;14.00;99.90;;;;;;5015788;28;19921;-75
2021/10/15 05:18:43;;;;;;;;;;;14.00;99.90;;;;;;4998233;28;19910;-77
2021/10/15 05:21:08;;;;;;;;;;;14.00;99.90;;;;;;5015348;28;19913;-76
2021/10/15 05:23:34;;;;;;;;;;;14.00;99.90;;;;;;4998313;28;19913;-77
2021/10/15 05:25:59;;;;;;;;;;;14.10;99.90;;;;;;4997875;28;19918;-76
2021/10/15 05:28:25;;;;;;;;;;;14.10;99.90;;;;;;4998159;28;20374;-76
2021/10/15 05:30:50;;;;;;;;;;;14.10;99.90;;;;;;5014977;28;19914;-76
2021/10/15 05:33:16;;;;;;;;;;;14.10;99.90;;;;;;5017567;28;20017;-77
2021/10/15 05:35:42;;;;;;;;;;;14.20;99.90;;;;;;5038964;28;19906;-78
2021/10/15 05:38:07;;;;;;;;;;;14.20;99.90;;;;;;5040703;28;19917;-78
2021/10/15 05:40:33;;;;;;;;;;;14.20;99.90;;;;;;5023219;28;19905;-78
2021/10/15 05:42:58;;;;;;;;;;;14.20;99.90;;;;;;5040363;28;19917;-76
2021/10/15 05:45:26;;;;;;;;;;;14.30;99.90;;;;;;5020682;28;19921;-76
2021/10/15 05:47:51;;;;;;;;;;;14.30;99.90;;;;;;5015793;28;19910;-77
2021/10/15 05:50:17;;;;;;;;;;;14.20;99.90;;;;;;5015134;28;19918;-77
2021/10/15 05:52:45;;;;;;;;;;;14.10;99.90;;;;;;4996675;28;20438;-76
2021/10/15 06:00:26;;;;;;;;;;;13.70;99.90;;;;;;5015398;28;19975;-78
2021/10/15 06:02:52;;;;;;;;;;;13.60;99.90;;;;;;5015068;28;19917;-76
2021/10/15 06:14:18;;;;;;;;;;;13.60;99.90;;;;;;4962011;28;19917;-79
2021/10/15 06:17:26;;;;;;;;;;;13.50;99.90;;;;;;4997784;28;19940;-80
2021/10/15 06:19:42;;;;;;;;;;;13.50;99.90;;;;;;5004969;28;19910;-79
2021/10/15 06:22:08;;;;;;;;;;;13.50;99.90;;;;;;4997791;28;20393;-79
2021/10/15 06:24:34;;;;;;;;;;;13.40;99.90;;;;;;4997232;28;19914;-78
2021/10/15 06:27:00;;;;;;;;;;;13.20;99.90;;;;;;4997566;28;20302;-78
2021/10/15 06:29:25;;;;;;;;;;;12.80;99.90;;;;;;4997879;28;19909;-81
2021/10/15 06:31:51;;;;;;;;;;;12.60;99.90;;;;;;5015881;28;19913;-80
2021/10/15 06:34:18;;;;;;;;;;;12.40;99.90;;;;;;5016632;28;20369;-79
2021/10/15 06:36:45;;;;;;;;;;;12.30;99.90;;;;;;5016451;28;20351;-81
2021/10/15 06:39:10;;;;;;;;;;;12.10;99.90;;;;;;5000814;28;19920;-81
2021/10/15 06:41:36;;;;;;;;;;;11.90;99.90;;;;;;5015263;28;19937;-81
2021/10/15 06:44:01;;;;;;;;;;;11.80;99.90;;;;;;5017567;28;19913;-81
2021/10/15 06:46:27;;;;;;;;;;;11.80;99.90;;;;;;5036134;28;19917;-83
2021/10/15 06:48:53;;;;;;;;;;;11.70;99.90;;;;;;5021999;28;19898;-81
2021/10/15 06:51:18;;;;;;;;;;;11.70;99.90;;;;;;5022202;28;19977;-83
2021/10/15 06:53:45;;;;;;;;;;;11.60;99.90;;;;;;5039216;28;19918;-80
2021/10/15 06:56:11;;;;;;;;;;;11.60;99.90;;;;;;5039359;28;19905;-81
2021/10/15 06:58:36;;;;;;;;;;;11.50;99.90;;;;;;5022261;28;19924;-83
2021/10/15 07:01:03;;;;;;;;;;;11.40;99.90;;;;;;5022455;28;19901;-80
2021/10/15 07:03:28;;;;;;;;;;;11.40;99.90;;;;;;5039561;28;19901;-80
2021/10/15 07:05:54;;;;;;;;;;;11.40;99.90;;;;;;5022616;28;19901;-79
2021/10/15 07:08:19;;;;;;;;;;;11.50;99.90;;;;;;4996944;28;19932;-78
2021/10/15 07:10:45;;;;;;;;;;;11.40;99.90;;;;;;4996357;28;20060;-79
2021/10/15 07:13:14;;;;;;;;;;;11.50;99.90;;;;;;4996998;28;19909;-82
2021/10/15 07:15:40;;;;;;;;;;;11.50;99.90;;;;;;5002934;28;19917;-83
2021/10/15 07:18:06;;;;;;;;;;;11.50;99.90;;;;;;4998028;28;19914;-83
2021/10/15 07:20:32;;;;;;;;;;;11.40;99.90;;;;;;5038428;28;19917;-81
2021/10/15 07:22:57;;;;;;;;;;;11.40;99.90;;;;;;5022015;28;19964;-81
2021/10/15 07:25:24;;;;;;;;;;;11.40;99.90;;;;;;5022558;28;19904;-81
2021/10/15 07:27:50;;;;;;;;;;;11.50;99.90;;;;;;5022327;28;19917;-81
2021/10/15 07:30:15;;;;;;;;;;;11.50;99.90;;;;;;5022554;28;19904;-80
2021/10/15 07:32:41;;;;;;;;;;;11.50;99.90;;;;;;5039417;28;20040;-81
2021/10/15 07:35:06;;;;;;;;;;;11.50;99.90;;;;;;5022574;28;19897;-79
2021/10/15 07:37:32;;;;;;;;;;;11.60;99.90;;;;;;5021883;28;19922;-80
2021/10/15 07:39:57;;;;;;;;;;;11.60;99.90;;;;;;5021987;28;19985;-81
2021/10/15 07:42:23;;;;;;;;;;;11.60;99.90;;;;;;5039185;28;19929;-81
2021/10/15 07:44:49;;;;;;;;;;;11.60;99.90;;;;;;5021621;28;19945;-80
2021/10/15 07:47:15;;;;;;;;;;;11.70;99.90;;;;;;5022063;28;19909;-79
2021/10/15 07:49:40;;;;;;;;;;;11.70;99.90;;;;;;4999109;28;19899;-79
2021/10/15 07:52:06;;;;;;;;;;;11.60;99.90;;;;;;4998244;28;19902;-80
2021/10/15 07:54:32;;;;;;;;;;;11.70;99.90;;;;;;4995916;28;19913;-80
2021/10/15 07:56:59;;;;;;;;;;;11.80;99.90;;;;;;4998590;28;19914;-81
2021/10/15 07:59:24;;;;;;;;;;;11.80;99.90;;;;;;4998846;28;19914;-79
2021/10/15 08:01:52;;;;;;;;;;;11.80;99.90;;;;;;5002064;28;19941;-81
2021/10/15 08:04:19;;;;;;;;;;;11.80;99.90;;;;;;4997236;28;19905;-79
2021/10/15 08:06:45;;;;;;;;;;;11.90;99.90;;;;;;4981860;28;19902;-79
2021/10/15 08:09:11;;;;;;;;;;;11.90;99.90;;;;;;4996675;28;19930;-78
2021/10/15 08:11:36;;;;;;;;;;;11.90;99.90;;;;;;4997761;28;19905;-81
2021/10/15 08:14:02;;;;;;;;;;;11.90;99.90;;;;;;4996600;28;19986;-81
2021/10/15 08:16:27;;;;;;;;;;;11.90;99.90;;;;;;4988775;28;20020;-80
2021/10/15 08:18:53;;;;;;;;;;;11.90;99.90;;;;;;4979324;28;19916;-80
2021/10/15 08:21:19;;;;;;;;;;;12.00;99.90;;;;;;4995412;28;19913;-79
2021/10/15 08:23:45;;;;;;;;;;;12.00;99.90;;;;;;5003624;28;19909;-78
2021/10/15 08:26:11;;;;;;;;;;;12.10;99.90;;;;;;5003473;28;19910;-78
2021/10/15 08:28:36;;;;;;;;;;;12.10;99.90;;;;;;5020379;28;19914;-79
2021/10/15 08:31:02;;;;;;;;;;;12.10;99.90;;;;;;5007002;28;19909;-79
2021/10/15 08:33:27;;;;;;;;;;;12.20;99.90;;;;;;5008051;28;19909;-77
2021/10/15 08:35:53;;;;;;;;;;;12.20;99.90;;;;;;5005979;28;19917;-79
2021/10/15 08:38:18;;;;;;;;;;;12.10;99.90;;;;;;5023868;28;19917;-78
2021/10/15 08:40:47;;;;;;;;;;;12.00;99.90;;;;;;5006045;28;19949;-78
2021/10/15 08:43:13;;;;;;;;;;;12.00;99.90;;;;;;5007381;28;19920;-80
2021/10/15 08:45:39;;;;;;;;;;;12.00;99.90;;;;;;5022044;28;19921;-80
2021/10/15 08:48:05;;;;;;;;;;;12.20;99.90;;;;;;5004539;28;19913;-79
2021/10/15 08:50:30;;;;;;;;;;;12.30;99.90;;;;;;5021270;28;19917;-78
2021/10/15 08:52:56;;;;;;;;;;;12.50;99.90;;;;;;5000980;28;20390;-79
2021/10/15 08:55:22;;;;;;;;;;;12.50;99.90;;;;;;5000531;28;19913;-79
2021/10/15 08:57:55;;;;;;;;;;;12.70;99.90;;;;;;5000001;28;20370;-78
2021/10/15 09:00:31;;;;;;;;;;;12.80;99.90;;;;;;5017146;28;19919;-78
2021/10/15 09:03:14;;;;;;;;;;;12.90;99.90;;;;;;4998163;28;19959;-78
2021/10/15 09:05:41;;;;;;;;;;;12.90;99.90;;;;;;5017506;28;19918;-79
2021/10/15 09:08:26;;;;;;;;;;;12.90;99.90;;;;;;5017731;28;19917;-78
2021/10/15 09:10:52;;;;;;;;;;;12.90;99.90;;;;;;4999455;28;19910;-78
2021/10/15 09:13:19;;;;;;;;;;;12.80;99.90;;;;;;5017375;28;19932;-77
2021/10/15 09:15:50;;;;;;;;;;;12.90;99.90;;;;;;4998699;28;19914;-76
2021/10/15 09:18:16;;;;;;;;;;;12.70;99.90;;;;;;4999609;28;20370;-78
2021/10/15 09:20:43;;;;;;;;;;;12.80;99.90;;;;;;4999464;28;19913;-76
2021/10/15 09:23:09;;;;;;;;;;;12.90;99.90;;;;;;4999366;28;20271;-76
2021/10/15 09:25:36;;;;;;;;;;;13.00;99.90;;;;;;4998273;28;19983;-78
2021/10/15 09:28:10;;;;;;;;;;;13.10;99.90;;;;;;4998118;28;20289;-77
2021/10/15 09:30:39;;;;;;;;;;;13.10;99.90;;;;;;4998045;28;20185;-77
2021/10/15 09:33:04;;;;;;;;;;;13.10;99.90;;;;;;4998583;28;19909;-78
2021/10/15 09:35:31;;;;;;;;;;;13.20;99.90;;;;;;5015559;28;19925;-77
2021/10/15 09:38:01;;;;;;;;;;;13.30;99.90;;;;;;4998105;28;19936;-78
2021/10/15 09:40:30;;;;;;;;;;;13.30;99.90;;;;;;5013383;28;19924;-77
2021/10/15 09:43:00;;;;;;;;;;;13.30;99.90;;;;;;4996845;28;19914;-77
2021/10/15 09:45:28;;;;;;;;;;;13.40;99.90;;;;;;4997522;28;19929;-77
2021/10/15 09:47:57;;;;;;;;;;;13.50;99.90;;;;;;4994987;28;19956;-77
2021/10/15 09:50:24;;;;;;;;;;;13.40;99.90;;;;;;5002897;28;19943;-79
2021/10/15 09:52:55;;;;;;;;;;;13.40;99.90;;;;;;5015454;28;20013;-77
2021/10/15 09:55:20;;;;;;;;;;;13.40;99.90;;;;;;5015706;28;20393;-78
2021/10/15 09:57:48;;;;;;;;;;;13.50;99.90;;;;;;5014893;28;19918;-77
2021/10/15 10:00:18;;;;;;;;;;;13.60;99.90;;;;;;4998296;28;20008;-76
2021/10/15 10:02:44;;;;;;;;;;;13.50;99.90;;;;;;4996832;28;19920;-77
2021/10/15 10:05:13;;;;;;;;;;;13.50;99.90;;;;;;4997580;28;19918;-77
2021/10/15 10:07:43;;;;;;;;;;;13.50;99.90;;;;;;4997021;28;19923;-77
2021/10/15 10:10:10;;;;;;;;;;;13.60;99.90;;;;;;4997532;28;19913;-77
2021/10/15 10:12:36;;;;;;;;;;;13.60;99.90;;;;;;4997166;28;19922;-77
2021/10/15 10:15:06;;;;;;;;;;;13.70;99.90;;;;;;4997776;28;19910;-77
2021/10/15 10:17:34;;;;;;;;;;;13.60;99.90;;;;;;5014760;28;20002;-76
2021/10/15 10:20:06;;;;;;;;;;;13.70;99.90;;;;;;4997516;28;19918;-76
2021/10/15 10:22:32;;;;;;;;;;;13.90;99.90;;;;;;5014856;28;19913;-76
2021/10/15 10:24:58;;;;;;;;;;;14.00;99.90;;;;;;4997642;28;20286;-78
2021/10/15 10:27:28;;;;;;;;;;;13.90;99.90;;;;;;5014744;28;19919;-77
2021/10/15 10:29:54;;;;;;;;;;;13.90;99.90;;;;;;5014575;28;19914;-77
2021/10/15 10:32:20;;;;;;;;;;;13.90;99.90;;;;;;5015419;28;19956;-77
2021/10/15 10:34:46;;;;;;;;;;;14.10;99.90;;;;;;5024265;28;20336;-78
2021/10/15 10:37:13;;;;;;;;;;;14.10;99.90;;;;;;5021079;28;19926;-78
2021/10/15 10:39:40;;;;;;;;;;;14.20;99.90;;;;;;5014328;28;19917;-77
2021/10/15 10:42:12;;;;;;;;;;;14.30;99.90;;;;;;5014790;28;20393;-77
2021/10/15 10:44:39;;;;;;;;;;;14.40;99.90;;;;;;5014597;28;20012;-78
2021/10/15 10:47:18;;;;;;;;;;;14.50;99.90;;;;;;4995748;28;19920;-76
2021/10/15 10:50:09;;;;;;;;;;;14.60;99.90;;;;;;5013537;28;19913;-76
2021/10/15 10:52:34;;;;;;;;;;;14.70;99.90;;;;;;4984431;28;19909;-78
2021/10/15 10:55:00;;;;;;;;;;;14.70;99.90;;;;;;5013832;28;20012;-77
2021/10/15 10:57:38;;;;;;;;;;;14.70;99.90;;;;;;4995168;28;19921;-78
2021/10/15 11:00:20;;;;;;;;;;;14.80;99.90;;;;;;5003788;28;20429;-79
2021/10/15 11:02:47;;;;;;;;;;;15.00;99.90;;;;;;5001512;28;19914;-78
2021/10/15 11:05:12;;;;;;;;;;;15.10;99.90;;;;;;4996984;28;20354;-78
2021/10/15 11:07:39;;;;;;;;;;;15.10;99.90;;;;;;4996540;28;19967;-77
2021/10/15 11:10:06;;;;;;;;;;;14.80;99.90;;;;;;4996531;28;20397;-77
2021/10/15 11:12:31;;;;;;;;;;;14.60;99.90;;;;;;4997082;28;19967;-77
2021/10/15 11:14:58;;;;;;;;;;;14.40;99.90;;;;;;4996498;28;19917;-77
2021/10/15 11:17:26;;;;;;;;;;;14.20;99.90;;;;;;4997175;28;19921;-78
2021/10/15 11:20:11;;;;;;;;;;;14.00;99.90;;;;;;4996810;28;20448;-79
2021/10/15 11:22:37;;;;;;;;;;;13.90;99.90;;;;;;4996668;28;19913;-79
2021/10/15 11:25:04;;;;;;;;;;;13.80;99.90;;;;;;4997335;28;19913;-78
2021/10/15 11:27:29;;;;;;;;;;;13.80;99.90;;;;;;4996360;28;19971;-78
2021/10/15 11:29:57;;;;;;;;;;;13.90;99.90;;;;;;4996312;28;19917;-78
2021/10/15 11:32:35;;;;;;;;;;;14.20;99.90;;;;;;4996360;28;20281;-77
2021/10/15 11:35:08;;;;;;;;;;;14.50;99.90;;;;;;5008208;28;20413;-77
2021/10/15 11:37:52;;;;;;;;;;;14.70;99.90;;;;;;5014081;28;19925;-75
2021/10/15 11:40:19;;;;;;;;;;;14.60;99.90;;;;;;4995325;28;19969;-76
2021/10/15 11:42:45;;;;;;;;;;;14.50;99.90;;;;;;5012202;28;19921;-76
2021/10/15 11:45:23;;;;;;;;;;;14.20;99.90;;;;;;5010549;28;19921;-75
2021/10/15 11:48:15;;;;;;;;;;;13.70;99.90;;;;;;4989483;28;19967;-75
2021/10/15 11:50:40;;;;;;;;;;;13.40;99.90;;;;;;5000546;28;19971;-77
2021/10/15 11:53:07;;;;;;;;;;;13.30;99.90;;;;;;4987047;28;19925;-77
2021/10/15 11:55:35;;;;;;;;;;;13.20;99.90;;;;;;4989504;28;20298;-76
2021/10/15 11:58:21;;;;;;;;;;;13.10;99.90;;;;;;5007381;28;20424;-78
2021/10/15 12:00:54;;;;;;;;;;;13.10;99.90;;;;;;4988127;28;19913;-78
2021/10/15 12:03:26;;;;;;;;;;;13.10;99.90;;;;;;5013347;28;20008;-79
2021/10/15 12:05:52;;;;;;;;;;;13.10;99.90;;;;;;4988175;28;19957;-76
2021/10/15 12:08:17;;;;;;;;;;;13.10;99.90;;;;;;5013639;28;20289;-78
2021/10/15 12:10:43;;;;;;;;;;;13.10;99.90;;;;;;4990246;28;19961;-78
2021/10/15 12:13:09;;;;;;;;;;;13.40;99.90;;;;;;5004020;28;19988;-77
2021/10/15 12:15:34;;;;;;;;;;;13.70;99.90;;;;;;5007074;28;19913;-77
2021/10/15 12:18:09;;;;;;;;;;;13.90;99.90;;;;;;5006497;28;20055;-78
2021/10/15 12:20:35;;;;;;;;;;;14.10;99.90;;;;;;4993995;28;19914;-79
2021/10/15 12:23:02;;;;;;;;;;;14.30;99.90;;;;;;5005194;28;19971;-77
2021/10/15 12:25:27;;;;;;;;;;;14.50;99.90;;;;;;5005213;28;19996;-76
2021/10/15 12:27:53;;;;;;;;;;;14.60;99.90;;;;;;5007867;28;19913;-78
2021/10/15 12:30:22;;;;;;;;;;;14.60;99.90;;;;;;4994268;28;19918;-77
2021/10/15 12:32:48;;;;;;;;;;;14.70;99.90;;;;;;4991977;28;19925;-78
2021/10/15 12:35:13;;;;;;;;;;;14.90;99.90;;;;;;4994557;28;19920;-77
2021/10/15 12:37:41;;;;;;;;;;;15.10;99.90;;;;;;4995663;28;20391;-76
2021/10/15 12:40:06;;;;;;;;;;;15.20;99.90;;;;;;5013166;28;20011;-76
2021/10/15 12:42:32;;;;;;;;;;;15.10;99.90;;;;;;5011124;28;20444;-77
2021/10/15 12:45:03;;;;;;;;;;;14.90;99.90;;;;;;4990978;28;20004;-78
2021/10/15 12:47:28;;;;;;;;;;;14.50;99.90;;;;;;5005229;28;20001;-77
2021/10/15 12:49:57;;;;;;;;;;;14.20;99.90;;;;;;5006248;28;20429;-77
2021/10/15 12:52:33;;;;;;;;;;;14.00;99.90;;;;;;4988735;28;20369;-78
2021/10/15 12:55:19;;;;;;;;;;;13.80;99.90;;;;;;4999152;28;20317;-78
2021/10/15 12:57:45;;;;;;;;;;;13.80;99.90;;;;;;4989967;28;20429;-78
2021/10/15 13:00:12;;;;;;;;;;;13.90;99.90;;;;;;4993316;28;19909;-78
2021/10/15 13:02:38;;;;;;;;;;;14.20;99.90;;;;;;5013255;28;19919;-78
2021/10/15 13:05:05;;;;;;;;;;;14.50;99.90;;;;;;4995388;28;19909;-78
2021/10/15 13:07:31;;;;;;;;;;;14.70;99.90;;;;;;5013078;28;20354;-78
2021/10/15 13:09:56;;;;;;;;;;;14.90;99.90;;;;;;5012884;28;19917;-76
2021/10/15 13:12:22;;;;;;;;;;;15.10;99.90;;;;;;5012888;28;20446;-78
2021/10/15 13:14:48;;;;;;;;;;;15.00;99.90;;;;;;5012420;28;19917;-78
2021/10/15 13:17:13;;;;;;;;;;;15.00;99.90;;;;;;5012961;28;19921;-77
2021/10/15 13:19:39;;;;;;;;;;;14.90;99.90;;;;;;4998329;28;19913;-77
2021/10/15 13:22:05;;;;;;;;;;;14.70;99.90;;;;;;5016199;28;19909;-78
2021/10/15 13:24:30;;;;;;;;;;;14.80;99.90;;;;;;4998783;28;19916;-79
2021/10/15 13:26:56;;;;;;;;;;;14.90;99.90;;;;;;4998021;28;19914;-78
2021/10/15 13:29:21;;;;;;;;;;;15.10;99.90;;;;;;5013708;28;20333;-78
2021/10/15 13:31:47;;;;;;;;;;;15.30;99.90;;;;;;5016096;28;20004;-78
2021/10/15 13:34:12;;;;;;;;;;;15.50;99.90;;;;;;5012408;28;19914;-80
2021/10/15 13:36:41;;;;;;;;;;;15.60;99.90;;;;;;5001783;28;19918;-78
2021/10/15 13:39:09;;;;;;;;;;;15.90;99.90;;;;;;4991597;28;19928;-78
2021/10/15 13:42:00;;;;;;;;;;;16.00;99.90;;;;;;5015455;28;19920;-78
2021/10/15 13:46:59;;;;;;;;;;;15.70;99.90;;;;;;5014938;28;19914;-78
2021/10/15 13:52:10;;;;;;;;;;;14.70;99.90;;;;;;5004642;28;19924;-78
2021/10/15 13:54:36;;;;;;;;;;;14.30;99.90;;;;;;4997640;28;19977;-78
2021/10/15 13:57:05;;;;;;;;;;;14.00;99.90;;;;;;4997072;28;19918;-78
2021/10/15 13:59:35;;;;;;;;;;;14.00;99.90;;;;;;5013849;28;20275;-79
2021/10/15 14:02:06;;;;;;;;;;;14.30;99.90;;;;;;4998137;28;19916;-79
2021/10/15 14:04:41;;;;;;;;;;;14.60;99.90;;;;;;4998164;28;19967;-79
2021/10/15 14:07:11;;;;;;;;;;;14.80;99.90;;;;;;4994944;28;19953;-79
2021/10/15 14:09:37;;;;;;;;;;;14.80;99.90;;;;;;5010498;28;20388;-79
2021/10/15 14:12:03;;;;;;;;;;;14.90;99.90;;;;;;5008146;28;19922;-78
2021/10/15 14:14:29;;;;;;;;;;;15.00;99.90;;;;;;5011986;28;20440;-78
2021/10/15 14:16:54;;;;;;;;;;;15.10;99.90;;;;;;5006825;28;19933;-78
2021/10/15 14:19:20;;;;;;;;;;;14.90;99.90;;;;;;5008825;28;19913;-78
2021/10/15 14:21:45;;;;;;;;;;;14.70;99.90;;;;;;5012994;28;20321;-78
2021/10/15 14:24:11;;;;;;;;;;;14.50;99.90;;;;;;4997747;28;20303;-78
2021/10/15 14:26:36;;;;;;;;;;;14.50;99.90;;;;;;4994399;28;20358;-79
2021/10/15 14:29:03;;;;;;;;;;;14.50;99.90;;;;;;5014099;28;19913;-79
2021/10/15 14:31:30;;;;;;;;;;;14.70;99.90;;;;;;4999957;28;19918;-78
2021/10/15 14:33:55;;;;;;;;;;;14.70;99.90;;;;;;4984255;28;20001;-77
2021/10/15 14:36:21;;;;;;;;;;;14.50;99.90;;;;;;4996457;28;19918;-79
2021/10/15 14:38:46;;;;;;;;;;;14.20;99.90;;;;;;4996691;28;19914;-79